Plymouth Light

42° 00' 12"N, 70° 36' 04"W, Elevation 54 ft.
Eastern Time

Hourly observations for the last 72 hours

Date Time Temperature (°F) Humi-
dity

(%)
Wind
(mph)
Pressure Rain (in) Sun
(W/m2)
ET
(in)
Air Dew 6 Hour 1 Hr 3 Hr 6 Hr Day
Alt
(in)
Sea
Level

(mb)
Max Min
24 08:00 59.1 58.5 59.2 56.5 98 SSW 5 G 6 29.80 1009.0 0.01 0.01 199 0.001
24 07:00 57.7 57.1 98 SW 3 G 4 29.79 1008.8 0.01 65 0.000
24 06:00 57.3 56.7 98 SSW 2 G 4 29.78 1008.6 0.01 19 0.000
24 05:00 56.8 56.0 97 NNW 1 G 4 29.77 1008.2 0.01 0.01 0 0.000
24 04:00 56.6 56.0 98 NNW 2 G 5 29.76 1007.9 0.01 0 0.000
24 03:00 57.0 56.2 97 NNW 4 G 9 29.78 1008.5 0.01 0.01 0 0.000
24 02:00 57.7 57.1 59.6 57.6 98 N 3 G 6 29.78 1008.5 0.00 0 0.000
24 01:00 57.8 57.0 97 N 3 G 8 29.79 1008.8 0.00 0 0.000
24 00:00 58.3 57.5 97 N 6 G 11 29.78 1008.4 0.04 0 0.046
23 23:00 58.4 57.6 97 N 7 G 13 29.79 1008.7 0.04 0 0.046
23 22:00 59.1 58.2 97 NNE 8 G 14 29.79 1009.0 0.04 0 0.046
23 21:00 59.5 58.6 97 NNE 5 G 9 29.79 1008.8 0.04 0 0.046
23 20:00 59.6 58.7 60.4 59.4 97 NNE 6 G 9 29.78 1008.6 0.01 0.02 0.02 0.04 7 0.046
23 19:00 59.6 58.5 96 NE 6 G 12 29.78 1008.5 0.03 18 0.045
23 18:00 59.9 58.8 96 ENE 8 G 11 29.79 1008.8 0.01 0.03 67 0.044
23 17:00 60.1 58.7 95 E 11 G 16 29.81 1009.3 0.02 53 0.042
23 16:00 59.8 57.5 92 NE 10 G 15 29.82 1010.0 0.02 60 0.039
23 15:00 60.1 57.2 90 ENE 10 G 15 29.84 1010.5 0.02 139 0.035
23 14:00 59.6 57.0 61.3 57.8 91 NE 11 G 14 29.86 1011.2 0.02 0.02 153 0.032
23 13:00 59.7 56.5 89 ENE 8 G 14 29.89 1012.1 0.02 121 0.027
23 12:00 60.3 56.4 87 E 10 G 12 29.90 1012.7 0.02 232 0.022
23 11:00 58.7 55.2 88 SE 8 G 12 29.93 1013.5 0.01 0.02 0.02 192 0.018
23 10:00 58.4 54.2 86 SSE 9 G 20 29.94 1013.9 0.01 0.01 77 0.015
23 09:00 60.7 56.2 85 SE 12 G 19 29.95 1014.2 0.00 139 0.011
23 08:00 61.0 56.1 61.3 60.0 84 ESE 12 G 15 29.95 1014.3 0.00 79 0.009
23 07:00 61.2 55.7 82 SSE 10 G 19 29.95 1014.4 0.00 46 0.006
23 06:00 60.8 54.6 80 SE 9 G 14 29.96 1014.7 0.00 21 0.005
23 05:00 60.3 54.1 80 SE 10 G 17 29.97 1014.8 0.00 0 0.004
23 04:00 60.1 54.9 83 S 7 G 10 29.98 1015.3 0.00 0 0.003
23 03:00 60.8 53.6 77 S 9 G 14 29.99 1015.7 0.00 0 0.002
23 02:00 60.2 54.7 64.0 60.1 82 SSE 4 G 7 30.01 1016.2 0.00 0 0.001
23 01:00 60.4 53.9 79 S 7 G 10 30.01 1016.3 0.00 0 0.000
23 00:00 60.6 51.9 73 S 7 G 8 30.02 1016.8 0.00 0 0.184
22 23:00 60.9 52.6 74 S 7 G 10 30.03 1017.0 0.00 0 0.182
22 22:00 61.7 52.6 72 S 9 G 12 30.03 1017.1 0.00 0 0.180
22 21:00 62.6 52.7 70 S 9 G 11 30.03 1017.0 0.00 0 0.178
22 20:00 64.0 53.2 67.1 63.7 68 S 9 G 11 30.03 1016.8 0.00 11 0.175
22 19:00 64.3 54.3 70 S 11 G 15 30.02 1016.7 0.00 56 0.169
22 18:00 64.9 55.3 71 S 11 G 17 30.01 1016.5 0.00 200 0.161
22 17:00 65.9 54.6 67 S 12 G 19 30.01 1016.5 0.00 264 0.148
22 16:00 66.2 57.7 74 SSE 9 G 17 30.02 1016.8 0.00 360 0.134
22 15:00 66.5 58.0 74 SSE 9 G 17 30.02 1016.7 0.00 791 0.115
22 14:00 66.7 57.4 66.9 63.2 72 ESE 8 G 11 30.03 1017.0 0.00 925 0.095
22 13:00 65.2 57.1 75 E 11 G 13 30.04 1017.2 0.00 689 0.073
22 12:00 65.3 55.7 71 E 8 G 11 30.03 1017.1 0.00 946 0.053
22 11:00 64.4 59.5 84 NE 9 G 11 30.03 1016.9 0.00 858 0.035
22 10:00 64.1 60.5 88 NE 7 G 10 30.03 1017.0 0.00 749 0.020
22 09:00 63.6 60.3 89 NE 5 G 9 30.02 1016.5 0.00 596 0.010
22 08:00 63.4 60.1 63.4 59.5 89 NE 4 G 7 30.00 1015.8 0.00 388 0.004
22 07:00 61.4 60.0 95 ENE 2 G 4 29.97 1015.0 0.00 176 0.001
22 06:00 59.8 58.4 95 E 6 G 8 29.95 1014.4 0.00 84 0.000
22 05:00 60.1 58.7 95 E 6 G 9 29.93 1013.5 0.00 0 0.000
22 04:00 61.0 59.6 95 ENE 9 G 12 29.90 1012.6 0.00 0 0.000
22 03:00 60.8 59.4 95 NE 6 G 10 29.89 1012.3 0.00 0 0.000
22 02:00 61.0 59.9 63.6 60.6 96 NNE 6 G 11 29.87 1011.6 0.00 0 0.000
22 01:00 61.0 59.6 95 NNE 4 G 7 29.86 1011.3 0.00 0 0.000
22 00:00 61.2 59.5 94 N 3 G 8 29.85 1010.9 0.00 0 0.187
21 23:00 61.9 59.9 93 N 3 G 5 29.84 1010.5 0.00 0 0.187
21 22:00 62.5 59.8 91 WNW 2 G 3 29.83 1010.1 0.00 0 0.187
21 21:00 63.2 60.8 92 E 1 G 2 29.81 1009.3 0.00 0 0.187
21 20:00 63.6 60.6 70.1 63.6 90 E 4 G 6 29.78 1008.5 0.00 18 0.185
21 19:00 64.0 60.4 88 ENE 4 G 8 29.78 1008.4 0.00 95 0.180
21 18:00 64.7 60.1 85 ENE 6 G 11 29.76 1007.9 0.00 308 0.171
21 17:00 65.5 60.5 84 ENE 8 G 12 29.75 1007.4 0.00 476 0.157
21 16:00 67.3 60.6 79 ENE 9 G 13 29.73 1006.9 0.00 638 0.139
21 15:00 68.6 61.8 79 ENE 7 G 10 29.73 1006.8 0.00 775 0.119
21 14:00 70.1 62.2 74.5 66.3 76 NNE 8 G 12 29.73 1006.8 0.00 867 0.096
21 13:00 71.9 62.8 73 NE 9 G 12 29.73 1006.9 0.00 905 0.073
21 12:00 72.7 62.4 70 NE 4 G 6 29.74 1007.1 0.00 895 0.052
21 11:00 71.8 63.1 74 SSW 4 G 6 29.74 1007.3 0.00 872 0.032
21 10:00 71.3 64.5 79 WSW 2 G 9 29.74 1007.1 0.00 737 0.018
21 09:00 68.7 63.0 82 WSW 4 G 8 29.74 1007.1 0.00 373 0.008

Data generated by WxSolution Version 1.9.1.1, Build 2017.11.27.